createdAt,value
2022-12-31T00:03:04.018Z,92.58
2022-12-31T00:18:06.735Z,92.38
2022-12-31T00:33:08.670Z,92.50
2022-12-31T00:48:10.712Z,92.44
2022-12-31T01:03:12.824Z,92.55
2022-12-31T01:18:14.970Z,92.59
2022-12-31T01:33:16.908Z,92.66
2022-12-31T01:48:24.913Z,92.57
2022-12-31T02:03:28.969Z,92.00
2022-12-31T02:18:36.776Z,91.80
2022-12-31T02:33:53.510Z,91.51
2022-12-31T02:49:24.473Z,91.36
2022-12-31T03:04:32.690Z,90.87
2022-12-31T03:19:53.147Z,90.89
2022-12-31T03:34:56.169Z,90.49
2022-12-31T03:49:58.191Z,90.10
2022-12-31T04:05:00.309Z,89.43
2022-12-31T04:20:03.229Z,88.77
2022-12-31T04:35:05.814Z,88.27
2022-12-31T04:50:08.461Z,88.11
2022-12-31T05:05:10.450Z,87.72
2022-12-31T05:20:12.389Z,87.41
2022-12-31T05:35:14.354Z,87.08
2022-12-31T05:50:16.810Z,87.54
2022-12-31T06:05:24.260Z,88.28
2022-12-31T06:20:28.190Z,88.59
2022-12-31T06:35:30.133Z,88.99
2022-12-31T06:50:32.151Z,88.94
2022-12-31T07:05:40.875Z,88.90
2022-12-31T07:20:43.097Z,88.62
2022-12-31T07:36:39.119Z,88.60
2022-12-31T07:51:41.771Z,88.16
2022-12-31T08:06:58.457Z,87.96
2022-12-31T08:22:25.354Z,87.77
2022-12-31T08:37:56.571Z,87.43
2022-12-31T08:52:59.009Z,86.92
2022-12-31T09:08:25.492Z,86.38
2022-12-31T09:23:27.795Z,86.08
2022-12-31T09:38:52.776Z,85.57
2022-12-31T09:54:06.350Z,85.31
2022-12-31T10:09:49.359Z,84.24
2022-12-31T10:25:39.181Z,83.97
2022-12-31T10:41:12.859Z,83.51
2022-12-31T10:57:07.443Z,82.80
2022-12-31T11:12:38.940Z,82.60
2022-12-31T11:28:13.270Z,82.96
2022-12-31T11:43:39.211Z,82.95
2022-12-31T11:58:51.552Z,84.08
2022-12-31T12:13:53.814Z,87.31
2022-12-31T12:28:55.831Z,89.67
2022-12-31T12:44:09.458Z,90.78
2022-12-31T12:59:40.428Z,91.64
2022-12-31T13:14:48.133Z,91.55
2022-12-31T13:29:51.976Z,91.36
2022-12-31T13:45:02.641Z,90.76
2022-12-31T14:00:12.655Z,89.71
2022-12-31T14:15:35.029Z,88.39
2022-12-31T14:30:42.857Z,87.41
2022-12-31T14:46:10.841Z,86.67
2022-12-31T15:01:15.698Z,86.30
2022-12-31T15:16:43.045Z,85.86
2022-12-31T15:31:47.313Z,85.43
2022-12-31T15:46:55.811Z,84.79
2022-12-31T16:01:58.394Z,84.45
2022-12-31T16:17:02.209Z,84.53
2022-12-31T16:32:04.610Z,84.97
2022-12-31T16:47:09.273Z,85.24
2022-12-31T17:02:39.437Z,85.14
2022-12-31T17:17:41.571Z,84.82
2022-12-31T17:32:45.674Z,84.67
2022-12-31T17:47:51.332Z,85.05
2022-12-31T18:02:53.408Z,84.67
2022-12-31T18:17:55.603Z,84.55
2022-12-31T18:32:57.571Z,84.23
2022-12-31T18:47:59.468Z,84.23
2022-12-31T19:03:01.534Z,83.99
2022-12-31T19:18:03.657Z,84.74
2022-12-31T19:33:05.570Z,85.49
2022-12-31T19:48:10.548Z,85.98
2022-12-31T20:03:12.749Z,86.40
2022-12-31T20:18:17.711Z,86.81
2022-12-31T20:33:19.916Z,86.84
2022-12-31T20:48:21.931Z,86.52
2022-12-31T21:04:02.824Z,86.31
2022-12-31T21:18:46.155Z,86.17
2022-12-31T21:33:49.051Z,85.92
2022-12-31T21:48:55.288Z,85.45
2022-12-31T22:03:57.229Z,85.70
2022-12-31T22:18:59.190Z,85.95
2022-12-31T22:34:02.291Z,86.15
2022-12-31T22:49:04.969Z,86.07
2022-12-31T23:04:07.095Z,86.18
2022-12-31T23:19:28.233Z,86.02
2022-12-31T23:34:30.290Z,86.34
2022-12-31T23:49:32.291Z,86.70
